createdAt,value
2018-06-22T00:00:06.671Z,101009.27
2018-06-22T00:02:33.642Z,101015.30
2018-06-22T00:05:01.614Z,101015.04
2018-06-22T00:07:44.221Z,101023.54
2018-06-22T00:10:11.742Z,101024.17
2018-06-22T00:12:48.886Z,101022.02
2018-06-22T00:15:16.770Z,101022.17
2018-06-22T00:17:43.729Z,101024.17
2018-06-22T00:20:14.642Z,101024.66
2018-06-22T00:22:47.687Z,101028.34
2018-06-22T00:25:26.978Z,101022.22
2018-06-22T00:27:54.797Z,101012.77
2018-06-22T00:30:23.301Z,101014.09
2018-06-22T00:32:50.251Z,101014.06
2018-06-22T00:35:19.258Z,101013.14
2018-06-22T00:37:47.855Z,101010.55
2018-06-22T00:40:14.795Z,101014.92
2018-06-22T00:42:41.965Z,101022.25
2018-06-22T00:45:13.334Z,101030.41
2018-06-22T00:47:44.897Z,101026.74
2018-06-22T00:50:13.787Z,101033.25
2018-06-22T00:52:42.343Z,101030.99
2018-06-22T00:55:09.231Z,101030.39
2018-06-22T00:57:36.201Z,101034.16
2018-06-22T01:00:03.259Z,101034.66
2018-06-22T01:02:34.929Z,101034.41
2018-06-22T01:05:04.934Z,101037.45
2018-06-22T01:07:31.902Z,101038.66
2018-06-22T01:10:01.842Z,101043.61
2018-06-22T01:12:33.819Z,101046.09
2018-06-22T01:15:02.329Z,101048.77
2018-06-22T01:17:30.174Z,101050.31
2018-06-22T01:20:09.294Z,101044.41
2018-06-22T01:22:36.818Z,101042.55
2018-06-22T01:25:04.421Z,101040.80
2018-06-22T01:27:31.371Z,101048.84
2018-06-22T01:29:58.814Z,101049.88
2018-06-22T01:32:26.824Z,101053.42
2018-06-22T01:34:56.720Z,101056.27
2018-06-22T01:37:23.682Z,101063.34
2018-06-22T01:39:50.624Z,101064.07
2018-06-22T01:42:27.106Z,101063.23
2018-06-22T01:45:00.318Z,101061.58
2018-06-22T01:47:30.246Z,101067.83
2018-06-22T01:50:10.514Z,101067.60
2018-06-22T01:52:38.374Z,101066.78
2018-06-22T01:55:07.103Z,101065.69
2018-06-22T01:57:35.886Z,101063.58
2018-06-22T02:00:08.791Z,101068.98
2018-06-22T02:02:41.994Z,101074.58
2018-06-22T02:05:10.855Z,101069.25
2018-06-22T02:07:38.782Z,101069.01
2018-06-22T02:10:06.782Z,101070.19
2018-06-22T02:12:42.387Z,101070.54
2018-06-22T02:15:09.259Z,101070.67
2018-06-22T02:17:36.886Z,101071.97
2018-06-22T02:20:11.731Z,101067.59
2018-06-22T02:22:42.126Z,101075.84
2018-06-22T02:25:12.070Z,101067.47
2018-06-22T02:27:39.004Z,101068.06
2018-06-22T02:30:07.130Z,101070.39
2018-06-22T02:32:34.049Z,101073.34
2018-06-22T02:35:01.835Z,101072.75
2018-06-22T02:37:29.382Z,101072.39
2018-06-22T02:40:02.515Z,101077.08
2018-06-22T02:42:30.634Z,101081.29
2018-06-22T02:44:57.554Z,101081.59
2018-06-22T02:47:24.478Z,101084.78
2018-06-22T02:49:54.444Z,101090.01
2018-06-22T02:52:21.382Z,101079.36
2018-06-22T02:54:51.931Z,101088.32
2018-06-22T02:57:21.826Z,101082.25
2018-06-22T02:59:50.877Z,101086.14
2018-06-22T03:02:23.970Z,101081.28
2018-06-22T03:04:51.879Z,101083.07
2018-06-22T03:07:19.395Z,101077.74
2018-06-22T03:09:46.375Z,101077.34
2018-06-22T03:12:13.338Z,101080.23
2018-06-22T03:14:41.350Z,101084.18
2018-06-22T03:17:08.243Z,101080.86
2018-06-22T03:19:36.875Z,101079.33
2018-06-22T03:22:07.405Z,101081.98
2018-06-22T03:24:35.400Z,101086.12
2018-06-22T03:27:09.626Z,101083.71
2018-06-22T03:29:36.557Z,101081.23
2018-06-22T03:32:06.449Z,101089.19
2018-06-22T03:34:33.943Z,101095.45
2018-06-22T03:37:02.457Z,101094.06
2018-06-22T03:39:29.412Z,101098.27
2018-06-22T03:41:57.905Z,101099.02
2018-06-22T03:44:25.902Z,101107.14
2018-06-22T03:46:52.866Z,101109.38
2018-06-22T03:49:19.806Z,101110.88
2018-06-22T03:51:48.419Z,101113.78
2018-06-22T03:54:15.361Z,101107.80
2018-06-22T03:56:48.288Z,101109.11
2018-06-22T03:59:15.207Z,101111.23
2018-06-22T04:01:42.848Z,101111.61
2018-06-22T04:04:20.479Z,101110.31
2018-06-22T04:06:49.066Z,101094.54
2018-06-22T04:09:17.911Z,101099.39
2018-06-22T04:11:45.438Z,101094.63
2018-06-22T04:14:13.367Z,101098.05
2018-06-22T04:16:47.190Z,101102.13
2018-06-22T04:19:14.135Z,101108.86
2018-06-22T04:21:47.374Z,101103.28
2018-06-22T04:24:19.141Z,101110.27
2018-06-22T04:26:47.374Z,101116.97
2018-06-22T04:29:17.135Z,101119.58
2018-06-22T04:31:45.923Z,101116.58
2018-06-22T04:34:13.162Z,101114.27
2018-06-22T04:36:41.079Z,101113.52
2018-06-22T04:39:12.098Z,101110.17
2018-06-22T04:41:40.647Z,101105.03
2018-06-22T04:44:12.833Z,101107.36
2018-06-22T04:46:42.515Z,101112.63
2018-06-22T04:49:11.545Z,101109.63
2018-06-22T04:51:42.510Z,101108.73
2018-06-22T04:54:10.488Z,101111.97
2018-06-22T04:56:37.379Z,101103.38
2018-06-22T04:59:05.896Z,101102.69
2018-06-22T05:01:44.867Z,101097.70
2018-06-22T05:04:11.843Z,101105.31
2018-06-22T05:06:39.470Z,101094.53
2018-06-22T05:09:06.822Z,101098.47
2018-06-22T05:11:33.798Z,101099.14
2018-06-22T05:14:04.550Z,101092.41
2018-06-22T05:16:34.484Z,101090.35
2018-06-22T05:19:01.356Z,101096.31
2018-06-22T05:21:28.294Z,101101.91
2018-06-22T05:23:55.248Z,101105.41
2018-06-22T05:26:24.039Z,101100.24
2018-06-22T05:28:54.950Z,101101.66
2018-06-22T05:31:22.543Z,101108.75
2018-06-22T05:33:49.453Z,101107.14
2018-06-22T05:36:16.332Z,101101.88
2018-06-22T05:38:43.186Z,101112.05
2018-06-22T05:41:18.770Z,101108.13
2018-06-22T05:43:46.462Z,101109.80
2018-06-22T05:46:15.475Z,101102.08
2018-06-22T05:48:42.384Z,101114.25
2018-06-22T05:51:09.886Z,101114.27
2018-06-22T05:53:45.771Z,101112.64
2018-06-22T05:56:13.398Z,101115.66
2018-06-22T05:58:44.076Z,101115.80
2018-06-22T06:01:12.947Z,101116.06
2018-06-22T06:03:39.885Z,101116.14
2018-06-22T06:06:07.466Z,101116.81
2018-06-22T06:08:34.979Z,101111.06
2018-06-22T06:11:03.406Z,101108.65
2018-06-22T06:13:34.938Z,101117.55
2018-06-22T06:16:01.886Z,101111.58
2018-06-22T06:18:38.316Z,101115.14
2018-06-22T06:21:06.187Z,101114.97
2018-06-22T06:23:38.035Z,101114.64
2018-06-22T06:26:04.974Z,101113.73
2018-06-22T06:28:32.428Z,101116.52
2018-06-22T06:30:59.414Z,101115.61
2018-06-22T06:33:26.418Z,101122.66
2018-06-22T06:35:54.037Z,101123.58
2018-06-22T06:38:24.446Z,101124.64
2018-06-22T06:40:55.842Z,101116.20
2018-06-22T06:43:25.738Z,101114.84
2018-06-22T06:45:53.715Z,101111.66
2018-06-22T06:48:21.426Z,101109.94
2018-06-22T06:50:49.403Z,101108.90
2018-06-22T06:53:16.331Z,101109.36
2018-06-22T06:55:46.126Z,101103.02
2018-06-22T06:58:14.081Z,101101.34
2018-06-22T07:00:42.066Z,101106.72
2018-06-22T07:03:09.437Z,101101.28
2018-06-22T07:05:37.030Z,101114.72
2018-06-22T07:08:10.510Z,101112.93
2018-06-22T07:10:37.452Z,101108.80
2018-06-22T07:13:04.402Z,101117.70
2018-06-22T07:15:38.229Z,101120.98
2018-06-22T07:18:06.257Z,101124.87
2018-06-22T07:20:33.395Z,101132.81
2018-06-22T07:23:05.554Z,101129.17
2018-06-22T07:25:32.986Z,101126.33
2018-06-22T07:28:01.516Z,101125.59
2018-06-22T07:30:32.514Z,101120.10
2018-06-22T07:32:59.468Z,101122.11
2018-06-22T07:35:27.407Z,101126.69
2018-06-22T07:38:01.763Z,101118.64
2018-06-22T07:40:29.634Z,101122.33
2018-06-22T07:43:01.502Z,101131.56
2018-06-22T07:45:28.434Z,101139.39
2018-06-22T07:47:55.443Z,101143.28
2018-06-22T07:50:25.346Z,101134.59
2018-06-22T07:52:54.042Z,101134.37
2018-06-22T07:55:22.538Z,101127.58
2018-06-22T07:57:54.549Z,101124.08
2018-06-22T08:00:23.505Z,101122.66
2018-06-22T08:02:53.126Z,101133.01
2018-06-22T08:05:20.084Z,101137.23
2018-06-22T08:07:47.078Z,101130.94
2018-06-22T08:10:17.890Z,101142.16
2018-06-22T08:12:53.042Z,101141.84
2018-06-22T08:15:26.259Z,101146.84
2018-06-22T08:17:54.024Z,101152.14
2018-06-22T08:20:20.994Z,101151.17
2018-06-22T08:22:52.329Z,101150.42
2018-06-22T08:25:23.294Z,101155.94
2018-06-22T08:27:50.265Z,101147.75
2018-06-22T08:30:19.070Z,101143.41
2018-06-22T08:32:47.539Z,101138.11
2018-06-22T08:35:17.474Z,101144.37
2018-06-22T08:37:45.058Z,101141.09
2018-06-22T08:40:12.010Z,101125.39
2018-06-22T08:42:45.098Z,101126.16
2018-06-22T08:45:12.031Z,101131.08
2018-06-22T08:47:41.061Z,101135.25
2018-06-22T08:50:08.543Z,101130.88
2018-06-22T08:52:43.175Z,101129.09
2018-06-22T08:55:14.134Z,101127.08
2018-06-22T08:57:46.415Z,101125.01
2018-06-22T09:00:16.139Z,101133.22
2018-06-22T09:02:49.298Z,101132.02
2018-06-22T09:05:19.915Z,101138.69
2018-06-22T09:07:46.862Z,101138.25
2018-06-22T09:10:16.737Z,101134.87
2018-06-22T09:12:44.652Z,101131.30
2018-06-22T09:15:12.066Z,101123.75
2018-06-22T09:17:47.050Z,101109.14
2018-06-22T09:20:14.654Z,101103.00
2018-06-22T09:22:49.997Z,101113.14
2018-06-22T09:25:16.957Z,101110.70
2018-06-22T09:27:43.906Z,101110.46
2018-06-22T09:30:11.821Z,101114.69
2018-06-22T09:32:38.760Z,101125.05
2018-06-22T09:35:11.501Z,101121.84
2018-06-22T09:37:38.726Z,101122.33
2018-06-22T09:40:11.385Z,101119.98
2018-06-22T09:42:38.394Z,101119.05
2018-06-22T09:45:05.424Z,101118.95
2018-06-22T09:47:33.091Z,101117.00
2018-06-22T09:49:59.956Z,101114.18
2018-06-22T09:52:29.809Z,101109.22
2018-06-22T09:54:58.658Z,101101.60
2018-06-22T09:57:25.622Z,101108.08
2018-06-22T09:59:53.090Z,101110.73
2018-06-22T10:02:20.035Z,101106.97
2018-06-22T10:04:47.917Z,101105.97
2018-06-22T10:07:21.043Z,101102.26
2018-06-22T10:09:47.970Z,101102.55
2018-06-22T10:12:14.854Z,101098.61
2018-06-22T10:14:45.181Z,101098.75
2018-06-22T10:17:13.663Z,101095.78
2018-06-22T10:19:41.254Z,101094.70
2018-06-22T10:22:08.093Z,101096.52
2018-06-22T10:24:34.941Z,101094.30
2018-06-22T10:27:02.665Z,101093.73
2018-06-22T10:29:29.595Z,101099.45
2018-06-22T10:31:57.155Z,101093.17
2018-06-22T10:34:24.123Z,101094.00
2018-06-22T10:36:50.968Z,101096.05
2018-06-22T10:39:17.945Z,101088.02
2018-06-22T10:41:50.926Z,101097.80
2018-06-22T10:44:17.894Z,101094.22
2018-06-22T10:46:44.872Z,101096.03
2018-06-22T10:49:12.614Z,101095.02
2018-06-22T10:51:40.263Z,101090.53
2018-06-22T10:54:07.159Z,101090.03
2018-06-22T10:56:34.014Z,101089.39
2018-06-22T10:59:03.958Z,101092.98
2018-06-22T11:01:37.132Z,101088.72
2018-06-22T11:04:05.406Z,101085.36
2018-06-22T11:06:32.383Z,101083.15
2018-06-22T11:09:06.334Z,101084.34
2018-06-22T11:11:33.254Z,101095.64
2018-06-22T11:14:00.233Z,101084.56
2018-06-22T11:16:32.906Z,101095.24
2018-06-22T11:18:59.826Z,101091.70
2018-06-22T11:21:29.822Z,101094.27
2018-06-22T11:24:00.220Z,101094.60
2018-06-22T11:26:27.083Z,101088.63
2018-06-22T11:28:54.043Z,101082.98
2018-06-22T11:31:21.694Z,101085.85
2018-06-22T11:33:49.167Z,101096.52
2018-06-22T11:36:16.115Z,101095.94
2018-06-22T11:38:43.090Z,101096.95
2018-06-22T11:41:12.975Z,101097.59
2018-06-22T11:43:39.886Z,101095.72
2018-06-22T11:46:12.130Z,101095.21
2018-06-22T11:48:53.965Z,101102.28
2018-06-22T11:51:26.966Z,101090.93
2018-06-22T11:53:57.715Z,101098.16
2018-06-22T11:56:28.457Z,101085.03
2018-06-22T11:58:56.370Z,101091.52
2018-06-22T12:01:27.406Z,101084.05
2018-06-22T12:03:54.362Z,101087.11
2018-06-22T12:06:21.318Z,101093.95
2018-06-22T12:08:48.297Z,101087.03
2018-06-22T12:11:15.189Z,101087.73
2018-06-22T12:13:42.650Z,101091.54
2018-06-22T12:16:10.218Z,101091.37
2018-06-22T12:18:37.129Z,101091.30
2018-06-22T12:21:07.257Z,101091.85
2018-06-22T12:23:34.172Z,101090.66
2018-06-22T12:26:04.626Z,101092.13
2018-06-22T12:28:33.574Z,101091.58
2018-06-22T12:31:02.214Z,101088.27
2018-06-22T12:33:30.751Z,101084.77
2018-06-22T12:35:58.167Z,101087.13
2018-06-22T12:38:32.175Z,101087.89
2018-06-22T12:40:59.231Z,101078.58
2018-06-22T12:43:26.766Z,101072.52
2018-06-22T12:45:54.187Z,101067.05
2018-06-22T12:48:21.094Z,101065.91
2018-06-22T12:50:48.035Z,101061.14
2018-06-22T12:53:14.994Z,101064.83
2018-06-22T12:55:43.688Z,101066.64
2018-06-22T12:58:10.688Z,101069.90
2018-06-22T13:00:38.225Z,101066.12
2018-06-22T13:03:09.386Z,101067.23
2018-06-22T13:05:36.554Z,101069.88
2018-06-22T13:08:04.686Z,101061.05
2018-06-22T13:10:31.586Z,101054.48
2018-06-22T13:13:00.212Z,101061.70
2018-06-22T13:15:28.178Z,101061.27
2018-06-22T13:17:55.754Z,101062.35
2018-06-22T13:20:22.735Z,101065.89
2018-06-22T13:22:49.643Z,101060.61
2018-06-22T13:25:16.645Z,101065.72
2018-06-22T13:27:46.954Z,101068.34
2018-06-22T13:30:14.938Z,101071.72
2018-06-22T13:32:42.754Z,101077.13
2018-06-22T13:35:10.472Z,101077.77
2018-06-22T13:37:37.394Z,101080.23
2018-06-22T13:40:04.410Z,101080.41
2018-06-22T13:42:32.278Z,101087.41
2018-06-22T13:44:59.242Z,101086.35
2018-06-22T13:47:28.443Z,101082.66
2018-06-22T13:49:55.374Z,101085.03
2018-06-22T13:52:23.372Z,101079.16
2018-06-22T13:54:50.369Z,101077.78
2018-06-22T13:57:23.558Z,101085.64
2018-06-22T13:59:51.235Z,101081.78
2018-06-22T14:02:19.490Z,101087.19
2018-06-22T14:04:57.114Z,101084.64
2018-06-22T14:07:30.660Z,101087.39
2018-06-22T14:09:57.617Z,101088.78
2018-06-22T14:12:24.495Z,101094.17
2018-06-22T14:14:52.418Z,101091.58
2018-06-22T14:17:19.350Z,101093.36
2018-06-22T14:19:48.282Z,101098.16
2018-06-22T14:22:16.011Z,101099.15
2018-06-22T14:24:42.926Z,101089.14
2018-06-22T14:27:09.859Z,101091.58
2018-06-22T14:29:42.901Z,101093.36
2018-06-22T14:32:13.850Z,101097.16
2018-06-22T14:34:40.741Z,101093.73
2018-06-22T14:37:08.749Z,101095.50
2018-06-22T14:39:36.338Z,101096.27
2018-06-22T14:42:04.302Z,101100.41
2018-06-22T14:44:31.811Z,101108.28
2018-06-22T14:47:02.739Z,101108.48
2018-06-22T14:49:31.374Z,101114.19
2018-06-22T14:52:01.366Z,101112.38
2018-06-22T14:54:34.090Z,101095.98
2018-06-22T14:57:07.606Z,101102.06
2018-06-22T14:59:41.350Z,101099.22
2018-06-22T15:02:16.497Z,101097.86
2018-06-22T15:04:52.111Z,101090.73
2018-06-22T15:07:33.798Z,101099.17
2018-06-22T15:10:00.798Z,101099.49
2018-06-22T15:12:27.728Z,101098.20
2018-06-22T15:14:54.702Z,101095.47
2018-06-22T15:17:22.657Z,101101.46
2018-06-22T15:19:50.638Z,101093.58
2018-06-22T15:22:22.601Z,101099.58
2018-06-22T15:24:49.518Z,101099.40
2018-06-22T15:27:19.281Z,101099.13
2018-06-22T15:29:46.277Z,101097.61
2018-06-22T15:32:14.775Z,101103.44
2018-06-22T15:34:53.740Z,101102.20
2018-06-22T15:37:26.284Z,101107.77
2018-06-22T15:39:59.089Z,101094.03
2018-06-22T15:42:45.652Z,101100.53
2018-06-22T15:45:19.042Z,101096.70
2018-06-22T15:47:51.662Z,101092.14
2018-06-22T15:50:40.828Z,101085.28
2018-06-22T15:53:13.723Z,101083.20
2018-06-22T15:55:43.883Z,101076.73
2018-06-22T15:58:16.065Z,101075.05
2018-06-22T16:00:46.810Z,101073.27
2018-06-22T16:03:35.088Z,101074.59
2018-06-22T16:06:02.030Z,101077.78
2018-06-22T16:08:30.722Z,101089.69
2018-06-22T16:11:05.128Z,101081.99
2018-06-22T16:13:32.014Z,101090.56
2018-06-22T16:16:18.688Z,101094.35
2018-06-22T16:18:57.362Z,101092.88
2018-06-22T16:21:31.498Z,101093.61
2018-06-22T16:24:06.221Z,101094.28
2018-06-22T16:26:39.435Z,101098.83
2018-06-22T16:29:06.534Z,101104.91
2018-06-22T16:31:34.383Z,101097.73
2018-06-22T16:34:01.349Z,101095.31
2018-06-22T16:36:29.854Z,101098.76
2018-06-22T16:38:56.890Z,101094.91
2018-06-22T16:41:23.866Z,101098.55
2018-06-22T16:43:53.754Z,101093.45
2018-06-22T16:46:23.767Z,101096.30
2018-06-22T16:48:52.338Z,101100.06
2018-06-22T16:51:19.866Z,101104.05
2018-06-22T16:53:47.862Z,101091.70
2018-06-22T16:56:14.786Z,101100.29
2018-06-22T16:58:47.695Z,101096.37
2018-06-22T17:01:14.666Z,101096.61
2018-06-22T17:03:44.562Z,101102.72
2018-06-22T17:06:15.473Z,101101.14
2018-06-22T17:08:48.998Z,101098.86
2018-06-22T17:11:21.806Z,101111.91
2018-06-22T17:13:55.099Z,101107.64
2018-06-22T17:16:28.550Z,101109.97
2018-06-22T17:18:57.721Z,101109.22
2018-06-22T17:21:25.658Z,101112.86
2018-06-22T17:23:55.959Z,101113.02
2018-06-22T17:26:23.822Z,101124.98
2018-06-22T17:28:52.362Z,101116.68
2018-06-22T17:31:19.810Z,101115.64
2018-06-22T17:33:49.739Z,101115.64
2018-06-22T17:36:17.693Z,101117.27
2018-06-22T17:38:50.627Z,101117.16
2018-06-22T17:41:22.498Z,101115.45
2018-06-22T17:43:49.476Z,101115.95
2018-06-22T17:46:17.354Z,101116.00
2018-06-22T17:48:44.255Z,101119.59
2018-06-22T17:51:11.174Z,101117.95
2018-06-22T17:53:39.810Z,101120.75
2018-06-22T17:56:06.670Z,101125.26
2018-06-22T17:58:34.354Z,101124.17
2018-06-22T18:01:10.122Z,101123.30
2018-06-22T18:03:43.863Z,101125.01
2018-06-22T18:06:19.470Z,101117.16
2018-06-22T18:08:47.441Z,101125.70
2018-06-22T18:11:34.950Z,101124.42
2018-06-22T18:14:02.966Z,101122.78
2018-06-22T18:16:30.414Z,101130.67
2018-06-22T18:18:57.359Z,101131.16
2018-06-22T18:21:24.921Z,101132.80
2018-06-22T18:23:55.486Z,101139.21
2018-06-22T18:26:22.330Z,101140.85
2018-06-22T18:28:49.299Z,101134.95
2018-06-22T18:31:16.246Z,101134.12
2018-06-22T18:33:49.867Z,101132.62
2018-06-22T18:36:16.806Z,101140.04
2018-06-22T18:38:43.770Z,101130.43
2018-06-22T18:41:16.003Z,101138.56
2018-06-22T18:43:52.700Z,101135.48
2018-06-22T18:46:19.612Z,101141.55
2018-06-22T18:48:46.519Z,101140.23
2018-06-22T18:51:13.522Z,101130.99
2018-06-22T18:53:46.270Z,101141.41
2018-06-22T18:56:29.354Z,101140.17
2018-06-22T18:59:02.082Z,101134.12
2018-06-22T19:01:35.819Z,101139.14
2018-06-22T19:04:02.779Z,101142.76
2018-06-22T19:06:30.795Z,101142.11
2018-06-22T19:08:58.766Z,101136.00
2018-06-22T19:11:29.014Z,101136.73
2018-06-22T19:13:55.944Z,101137.36
2018-06-22T19:16:24.536Z,101145.37
2018-06-22T19:18:52.434Z,101146.73
2018-06-22T19:21:23.190Z,101150.67
2018-06-22T19:23:50.156Z,101148.98
2018-06-22T19:26:17.923Z,101149.69
2018-06-22T19:28:44.883Z,101154.97
2018-06-22T19:31:12.878Z,101154.28
2018-06-22T19:33:40.842Z,101150.30
2018-06-22T19:36:07.754Z,101157.62
2018-06-22T19:38:34.678Z,101164.16
2018-06-22T19:41:04.543Z,101172.19
2018-06-22T19:43:52.862Z,101166.72
2018-06-22T19:46:26.294Z,101171.30
2018-06-22T19:48:59.038Z,101175.25
2018-06-22T19:51:34.622Z,101175.63
2018-06-22T19:54:10.517Z,101174.74
2018-06-22T19:56:39.486Z,101184.14
2018-06-22T19:59:12.434Z,101188.58
2018-06-22T20:01:41.382Z,101187.72
2018-06-22T20:04:21.766Z,101192.19
2018-06-22T20:06:51.703Z,101192.18
2018-06-22T20:09:18.642Z,101197.73
2018-06-22T20:11:46.514Z,101195.05
2018-06-22T20:14:15.110Z,101197.93
2018-06-22T20:16:44.053Z,101201.32
2018-06-22T20:19:11.475Z,101211.48
2018-06-22T20:21:39.486Z,101202.67
2018-06-22T20:24:06.930Z,101206.04
2018-06-22T20:26:33.918Z,101203.49
2018-06-22T20:29:01.876Z,101211.24
2018-06-22T20:31:34.635Z,101216.50
2018-06-22T20:34:10.274Z,101216.22
2018-06-22T20:36:42.790Z,101222.23
2018-06-22T20:39:17.260Z,101224.36
2018-06-22T20:42:10.802Z,101222.23
2018-06-22T20:44:44.434Z,101225.54
2018-06-22T20:47:17.235Z,101231.21
2018-06-22T20:49:51.774Z,101226.42
2018-06-22T20:52:21.507Z,101235.98
2018-06-22T20:54:51.905Z,101234.95
2018-06-22T20:57:29.065Z,101236.86
2018-06-22T20:59:57.538Z,101233.91
2018-06-22T21:02:24.530Z,101232.61
2018-06-22T21:04:51.630Z,101234.59
2018-06-22T21:07:18.758Z,101234.76
2018-06-22T21:09:46.490Z,101237.47
2018-06-22T21:12:26.248Z,101237.89
2018-06-22T21:14:48.296Z,101239.73
2018-06-22T21:17:15.190Z,101240.16
2018-06-22T21:19:46.334Z,101245.59
2018-06-22T21:22:17.033Z,101251.34
2018-06-22T21:24:49.431Z,101246.18
2018-06-22T21:27:22.051Z,101245.27
2018-06-22T21:30:14.973Z,101253.44
2018-06-22T21:33:06.963Z,101247.70
2018-06-22T21:35:39.620Z,101254.14
2018-06-22T21:38:13.413Z,101250.59
2018-06-22T21:40:41.426Z,101254.39
2018-06-22T21:43:11.338Z,101256.27
2018-06-22T21:45:38.301Z,101251.85
2018-06-22T21:48:10.502Z,101255.05
2018-06-22T21:50:37.442Z,101251.77
2018-06-22T21:53:09.422Z,101253.17
2018-06-22T21:55:39.351Z,101253.06
2018-06-22T21:58:09.067Z,101249.55
2018-06-22T22:00:35.992Z,101249.19
2018-06-22T22:03:09.535Z,101247.20
2018-06-22T22:05:36.483Z,101250.74
2018-06-22T22:08:04.575Z,101254.05
2018-06-22T22:10:56.882Z,101251.42
2018-06-22T22:13:25.521Z,101247.33
2018-06-22T22:15:52.482Z,101245.19
2018-06-22T22:18:20.483Z,101250.39
2018-06-22T22:20:48.033Z,101245.55
2018-06-22T22:23:15.529Z,101254.74
2018-06-22T22:25:44.019Z,101254.51
2018-06-22T22:28:12.614Z,101254.16
2018-06-22T22:30:39.549Z,101255.82
2018-06-22T22:33:12.258Z,101262.08
2018-06-22T22:35:44.810Z,101255.34
2018-06-22T22:38:14.571Z,101259.59
2018-06-22T22:40:42.559Z,101260.08
2018-06-22T22:43:09.519Z,101255.34
2018-06-22T22:45:36.486Z,101251.80
2018-06-22T22:48:05.070Z,101257.11
2018-06-22T22:50:35.494Z,101252.72
2018-06-22T22:53:05.421Z,101251.16
2018-06-22T22:55:41.507Z,101253.16
2018-06-22T22:58:14.598Z,101242.12
2018-06-22T23:00:46.478Z,101248.06
2018-06-22T23:03:13.406Z,101247.36
2018-06-22T23:05:43.366Z,101244.25
2018-06-22T23:08:11.341Z,101252.20
2018-06-22T23:10:48.073Z,101252.02
2018-06-22T23:13:16.023Z,101253.42
2018-06-22T23:15:42.954Z,101260.38
2018-06-22T23:18:10.951Z,101260.11
2018-06-22T23:20:38.931Z,101259.28
2018-06-22T23:23:35.826Z,101255.73
2018-06-22T23:26:05.834Z,101256.63
2018-06-22T23:28:32.789Z,101258.17
2018-06-22T23:31:04.749Z,101249.83
2018-06-22T23:33:38.764Z,101248.54
2018-06-22T23:36:06.546Z,101247.83
2018-06-22T23:38:33.919Z,101244.88
2018-06-22T23:41:03.838Z,101249.77
2018-06-22T23:43:34.826Z,101248.94
2018-06-22T23:46:05.563Z,101253.50
2018-06-22T23:48:45.116Z,101249.42
2018-06-22T23:51:16.054Z,101248.88
2018-06-22T23:53:45.970Z,101248.49
2018-06-22T23:56:12.944Z,101249.05
2018-06-22T23:58:39.886Z,101240.20
